createdAt,value
2022-07-25T00:00:09.068Z,3.78
2022-07-25T00:00:20.752Z,3.60
2022-07-25T00:00:32.526Z,3.50
2022-07-25T00:00:43.983Z,3.33
2022-07-25T00:00:55.841Z,3.30
2022-07-25T00:01:07.491Z,3.40
2022-07-25T00:01:20.600Z,3.50
2022-07-25T00:01:32.437Z,3.50
2022-07-25T00:01:44.619Z,3.33
2022-07-25T00:01:56.912Z,3.58
2022-07-25T00:02:09.166Z,3.47
2022-07-25T00:02:20.625Z,3.47
2022-07-25T00:02:32.819Z,3.38
2022-07-25T00:02:45.658Z,3.47
2022-07-25T00:02:57.397Z,3.58
2022-07-25T00:03:10.919Z,3.45
2022-07-25T00:03:22.607Z,3.60
2022-07-25T00:03:34.394Z,3.72
2022-07-25T00:03:45.872Z,3.67
2022-07-25T00:03:58.162Z,3.67
2022-07-25T00:04:12.244Z,3.55
2022-07-25T00:04:24.042Z,3.75
2022-07-25T00:04:35.537Z,3.80
2022-07-25T00:04:47.815Z,3.72
2022-07-25T00:04:59.402Z,3.53
2022-07-25T00:05:10.935Z,3.60
2022-07-25T00:05:22.467Z,3.30
2022-07-25T00:05:37.755Z,3.42
2022-07-25T00:05:49.603Z,3.72
2022-07-25T00:06:26.358Z,3.47
2022-07-25T00:06:41.873Z,3.55
2022-07-25T00:06:53.282Z,3.40
2022-07-25T00:07:04.924Z,3.60
2022-07-25T00:07:16.338Z,3.53
2022-07-25T00:07:28.413Z,3.40
2022-07-25T00:07:39.898Z,3.50
2022-07-25T00:07:51.418Z,3.70
2022-07-25T00:08:02.852Z,3.70
2022-07-25T00:08:14.335Z,3.90
2022-07-25T00:08:25.783Z,3.78
2022-07-25T00:08:37.201Z,3.60
2022-07-25T00:08:48.659Z,3.58
2022-07-25T00:09:00.098Z,3.67
2022-07-25T00:09:11.516Z,3.80
2022-07-25T00:09:22.934Z,3.83
2022-07-25T00:09:34.626Z,3.65
2022-07-25T00:09:46.150Z,3.60
2022-07-25T00:09:57.620Z,3.55
2022-07-25T00:10:09.580Z,3.53
2022-07-25T00:10:21.208Z,3.38
2022-07-25T00:10:32.641Z,3.55
2022-07-25T00:10:44.547Z,3.53
2022-07-25T00:10:56.039Z,3.70
2022-07-25T00:11:08.402Z,3.60
2022-07-25T00:11:19.884Z,3.08
2022-07-25T00:11:31.302Z,3.20
2022-07-25T00:11:42.986Z,3.60
2022-07-25T00:11:54.414Z,3.70
2022-07-25T00:12:06.116Z,3.60
2022-07-25T00:12:19.468Z,3.78
2022-07-25T00:12:56.361Z,3.28
2022-07-25T00:13:07.813Z,3.45
2022-07-25T00:13:19.362Z,3.38
2022-07-25T00:13:30.790Z,3.38
2022-07-25T00:13:42.431Z,3.25
2022-07-25T00:13:53.888Z,3.30
2022-07-25T00:14:06.174Z,3.40
2022-07-25T00:14:17.798Z,3.40
2022-07-25T00:14:29.245Z,3.35
2022-07-25T00:14:40.684Z,3.75
2022-07-25T00:14:52.217Z,3.42
2022-07-25T00:15:04.337Z,3.40
2022-07-25T00:15:15.964Z,3.33
2022-07-25T00:15:27.375Z,3.53
2022-07-25T00:15:38.839Z,3.53
2022-07-25T00:15:50.402Z,3.75
2022-07-25T00:16:01.849Z,3.88
2022-07-25T00:16:13.616Z,3.80
2022-07-25T00:16:25.321Z,3.58
2022-07-25T00:16:36.820Z,3.40
2022-07-25T00:16:48.248Z,3.22
2022-07-25T00:16:59.644Z,3.40
2022-07-25T00:17:11.054Z,3.47
2022-07-25T00:17:22.476Z,3.60
2022-07-25T00:17:34.006Z,3.55
2022-07-25T00:17:45.452Z,3.53
2022-07-25T00:17:56.874Z,3.75
2022-07-25T00:18:08.311Z,3.92
2022-07-25T00:18:19.701Z,3.63
2022-07-25T00:18:31.110Z,3.60
2022-07-25T00:18:42.540Z,3.40
2022-07-25T00:18:53.931Z,3.30
2022-07-25T00:19:05.808Z,3.33
2022-07-25T00:19:17.522Z,3.38
2022-07-25T00:19:28.923Z,3.38
2022-07-25T00:19:40.832Z,3.60
2022-07-25T00:19:52.302Z,3.55
2022-07-25T00:20:04.800Z,3.20
2022-07-25T00:20:16.384Z,3.25
2022-07-25T00:20:28.009Z,3.63
2022-07-25T00:20:39.448Z,3.60
2022-07-25T00:20:50.893Z,3.58
2022-07-25T00:21:02.301Z,3.70
2022-07-25T00:21:13.709Z,3.70
2022-07-25T00:21:25.293Z,3.42
2022-07-25T00:21:36.725Z,3.65
2022-07-25T00:21:48.228Z,3.67
2022-07-25T00:21:59.669Z,3.70
2022-07-25T00:22:11.111Z,3.50
2022-07-25T00:22:22.630Z,3.50
2022-07-25T00:22:34.491Z,3.70
2022-07-25T00:22:45.897Z,3.50
2022-07-25T00:22:57.310Z,3.45
2022-07-25T00:23:08.761Z,3.85
2022-07-25T00:23:46.580Z,3.80
2022-07-25T00:23:58.150Z,3.92
2022-07-25T00:24:10.122Z,3.85
2022-07-25T00:24:21.944Z,3.65
2022-07-25T00:24:33.529Z,3.65
2022-07-25T00:24:44.974Z,3.58
2022-07-25T00:24:56.496Z,3.78
2022-07-25T00:25:08.237Z,3.88
2022-07-25T00:25:19.677Z,3.70
2022-07-25T00:25:31.060Z,3.40
2022-07-25T00:25:45.253Z,3.50
2022-07-25T00:25:56.662Z,3.33
2022-07-25T00:26:08.134Z,3.25
2022-07-25T00:26:19.809Z,3.15
2022-07-25T00:26:32.048Z,3.53
2022-07-25T00:26:45.824Z,3.88
2022-07-25T00:26:57.248Z,4.00
2022-07-25T00:27:08.899Z,3.67
2022-07-25T00:27:20.298Z,3.10
2022-07-25T00:27:31.690Z,3.05
2022-07-25T00:27:43.129Z,3.50
2022-07-25T00:27:54.579Z,3.60
2022-07-25T00:28:06.619Z,3.45
2022-07-25T00:28:17.997Z,3.38
2022-07-25T00:28:29.418Z,3.50
2022-07-25T00:28:40.851Z,3.40
2022-07-25T00:28:52.281Z,3.25
2022-07-25T00:29:04.040Z,3.30
2022-07-25T00:29:15.460Z,3.55
2022-07-25T00:29:26.917Z,3.53
2022-07-25T00:29:38.432Z,3.33
2022-07-25T00:29:49.847Z,3.40
2022-07-25T00:30:01.329Z,3.78
2022-07-25T00:30:13.247Z,3.63
2022-07-25T00:30:24.637Z,3.58
2022-07-25T00:30:36.079Z,3.22
2022-07-25T00:30:47.665Z,3.17
2022-07-25T00:30:59.255Z,3.38
2022-07-25T00:31:10.834Z,3.28
2022-07-25T00:31:22.338Z,3.35
2022-07-25T00:31:33.907Z,3.50
2022-07-25T00:31:45.495Z,3.58
2022-07-25T00:31:56.936Z,3.50
2022-07-25T00:32:08.322Z,3.53
2022-07-25T00:32:19.726Z,3.80
2022-07-25T00:32:31.133Z,3.60
2022-07-25T00:32:42.803Z,3.45
2022-07-25T00:32:54.301Z,3.60
2022-07-25T00:33:05.712Z,3.53
2022-07-25T00:33:17.302Z,3.67
2022-07-25T00:33:28.695Z,3.65
2022-07-25T00:33:40.116Z,3.47
2022-07-25T00:33:51.565Z,3.28
2022-07-25T00:34:03.697Z,3.45
2022-07-25T00:34:15.685Z,3.78
2022-07-25T00:34:27.142Z,3.72
2022-07-25T00:34:38.776Z,3.30
2022-07-25T00:34:50.244Z,3.10
2022-07-25T00:35:01.727Z,3.33
2022-07-25T00:35:13.141Z,3.50
2022-07-25T00:35:24.655Z,3.47
2022-07-25T00:35:36.057Z,3.65
2022-07-25T00:35:47.549Z,4.03
2022-07-25T00:35:59.198Z,4.00
2022-07-25T00:36:10.738Z,3.92
2022-07-25T00:36:22.179Z,3.53
2022-07-25T00:36:33.698Z,3.58
2022-07-25T00:36:45.258Z,3.70
2022-07-25T00:36:56.793Z,4.07
2022-07-25T00:37:08.228Z,3.75
2022-07-25T00:37:19.629Z,3.63
2022-07-25T00:37:31.004Z,3.50
2022-07-25T00:37:42.395Z,3.65
2022-07-25T00:37:53.801Z,3.78
2022-07-25T00:38:05.216Z,3.83
2022-07-25T00:38:16.984Z,3.67
2022-07-25T00:38:28.472Z,3.83
2022-07-25T00:38:47.433Z,3.58
2022-07-25T00:38:58.901Z,3.00
2022-07-25T00:39:10.321Z,3.08
2022-07-25T00:39:21.745Z,3.10
2022-07-25T00:39:33.188Z,3.47
2022-07-25T00:39:47.204Z,3.67
2022-07-25T00:39:58.635Z,3.70
2022-07-25T00:40:10.826Z,3.67
2022-07-25T00:40:23.042Z,3.78
2022-07-25T00:40:35.650Z,3.60
2022-07-25T00:40:47.050Z,3.57
2022-07-25T00:41:06.802Z,3.63
2022-07-25T00:41:18.294Z,4.05
2022-07-25T00:41:29.738Z,4.15
2022-07-25T00:41:41.188Z,3.95
2022-07-25T00:41:52.593Z,3.92
2022-07-25T00:42:04.242Z,3.83
2022-07-25T00:42:15.861Z,3.55
2022-07-25T00:42:27.282Z,3.53
2022-07-25T00:42:38.987Z,3.80
2022-07-25T00:42:50.485Z,3.72
2022-07-25T00:43:01.920Z,3.65
2022-07-25T00:43:13.383Z,3.75
2022-07-25T00:43:24.895Z,3.83
2022-07-25T00:43:36.296Z,3.78
2022-07-25T00:43:47.677Z,3.30
2022-07-25T00:43:59.079Z,3.28
2022-07-25T00:44:21.411Z,3.28
2022-07-25T00:44:36.193Z,4.00
2022-07-25T00:44:47.569Z,3.78
2022-07-25T00:44:59.012Z,3.38
2022-07-25T00:45:10.807Z,3.42
2022-07-25T00:45:22.211Z,3.85
2022-07-25T00:45:33.702Z,3.63
2022-07-25T00:45:45.090Z,3.40
2022-07-25T00:45:56.572Z,3.20
2022-07-25T00:46:08.853Z,3.63
2022-07-25T00:46:20.649Z,3.70
2022-07-25T00:46:33.090Z,3.88
2022-07-25T00:46:44.620Z,3.97
2022-07-25T00:46:57.166Z,3.85
2022-07-25T00:47:08.650Z,3.47
2022-07-25T00:47:20.021Z,3.30
2022-07-25T00:47:31.517Z,3.55
2022-07-25T00:47:42.979Z,3.58
2022-07-25T00:47:54.372Z,3.80
2022-07-25T00:48:05.984Z,4.28
2022-07-25T00:48:17.357Z,4.22
2022-07-25T00:48:29.721Z,4.05
2022-07-25T00:48:41.298Z,3.55
2022-07-25T00:48:52.790Z,3.55
2022-07-25T00:49:04.335Z,3.78
2022-07-25T00:49:15.901Z,3.75
2022-07-25T00:49:27.445Z,3.47
2022-07-25T00:49:38.815Z,3.38
2022-07-25T00:49:50.229Z,3.35
2022-07-25T00:50:01.814Z,3.60
2022-07-25T00:50:13.236Z,3.53
2022-07-25T00:50:25.219Z,3.70
2022-07-25T00:50:36.801Z,3.72
2022-07-25T00:50:48.370Z,3.85
2022-07-25T00:51:00.206Z,3.72
2022-07-25T00:51:11.862Z,3.78
2022-07-25T00:51:23.340Z,3.53
2022-07-25T00:51:34.766Z,3.60
2022-07-25T00:51:46.986Z,3.50
2022-07-25T00:51:58.648Z,3.78
2022-07-25T00:52:10.089Z,3.85
2022-07-25T00:52:21.536Z,3.53
2022-07-25T00:52:32.948Z,3.22
2022-07-25T00:52:45.166Z,3.03
2022-07-25T00:52:56.772Z,3.45
2022-07-25T00:53:10.070Z,3.40
2022-07-25T00:53:22.074Z,3.40
2022-07-25T00:53:34.101Z,3.40
2022-07-25T00:53:46.074Z,3.60
2022-07-25T00:53:57.646Z,3.60
2022-07-25T00:54:10.208Z,3.38
2022-07-25T00:54:22.430Z,3.38
2022-07-25T00:54:34.134Z,3.30
2022-07-25T00:54:46.328Z,3.25
2022-07-25T00:54:57.831Z,3.20
2022-07-25T00:55:09.376Z,3.50
2022-07-25T00:55:21.392Z,3.60
2022-07-25T00:55:33.169Z,3.40
2022-07-25T00:55:44.876Z,3.38
2022-07-25T00:55:56.340Z,3.60
2022-07-25T00:56:08.109Z,3.58
2022-07-25T00:56:19.698Z,3.63
2022-07-25T00:56:31.627Z,3.65
2022-07-25T00:56:43.502Z,3.60
2022-07-25T00:56:54.923Z,3.65
2022-07-25T00:57:06.354Z,3.47
2022-07-25T00:57:17.767Z,3.35
2022-07-25T00:57:29.194Z,3.25
2022-07-25T00:57:40.837Z,3.50
2022-07-25T00:57:52.226Z,3.58
2022-07-25T00:58:04.162Z,3.30
2022-07-25T00:58:15.595Z,3.40
2022-07-25T00:58:27.078Z,3.72
2022-07-25T00:58:38.513Z,3.65
2022-07-25T00:58:49.968Z,3.63
2022-07-25T00:59:01.448Z,3.60
2022-07-25T00:59:13.087Z,3.83
2022-07-25T00:59:24.528Z,3.65
2022-07-25T00:59:36.106Z,3.60
2022-07-25T00:59:47.586Z,3.53
2022-07-25T00:59:59.057Z,3.72
2022-07-25T01:00:13.266Z,3.67
2022-07-25T01:00:25.330Z,3.60
2022-07-25T01:00:36.840Z,3.75
2022-07-25T01:00:48.292Z,3.72
2022-07-25T01:01:00.491Z,3.53
2022-07-25T01:01:11.985Z,3.40
2022-07-25T01:01:23.484Z,3.65
2022-07-25T01:01:35.576Z,3.70
2022-07-25T01:01:47.223Z,3.78
2022-07-25T01:01:59.507Z,3.83
2022-07-25T01:02:15.496Z,3.60
2022-07-25T01:02:27.134Z,3.30
2022-07-25T01:02:38.669Z,3.00
2022-07-25T01:02:50.989Z,3.03
2022-07-25T01:03:02.634Z,3.25
2022-07-25T01:03:14.889Z,3.63
2022-07-25T01:03:26.489Z,3.67
2022-07-25T01:03:37.896Z,3.80
2022-07-25T01:03:49.373Z,3.85
2022-07-25T01:04:00.935Z,3.83
2022-07-25T01:04:12.370Z,3.85
2022-07-25T01:04:23.871Z,3.50
2022-07-25T01:04:35.348Z,3.65
2022-07-25T01:04:46.776Z,3.50
2022-07-25T01:04:58.242Z,3.70
2022-07-25T01:05:10.984Z,3.47
2022-07-25T01:05:22.515Z,3.60
2022-07-25T01:05:33.911Z,3.30
2022-07-25T01:05:48.038Z,3.53
2022-07-25T01:06:03.365Z,3.55
2022-07-25T01:06:14.769Z,3.53
2022-07-25T01:06:27.385Z,3.63
2022-07-25T01:06:38.864Z,3.80
2022-07-25T01:06:50.775Z,3.75
2022-07-25T01:07:02.817Z,3.60
2022-07-25T01:07:14.779Z,3.70
2022-07-25T01:07:26.541Z,3.60
2022-07-25T01:07:39.313Z,3.45
2022-07-25T01:07:55.089Z,3.33
2022-07-25T01:08:07.086Z,3.47
2022-07-25T01:08:19.549Z,3.78
2022-07-25T01:08:31.983Z,3.85
2022-07-25T01:08:43.662Z,3.70
2022-07-25T01:08:55.238Z,3.45
2022-07-25T01:09:07.397Z,3.50
2022-07-25T01:09:20.365Z,3.40
2022-07-25T01:09:31.962Z,3.60
2022-07-25T01:09:43.785Z,3.58
2022-07-25T01:09:55.786Z,3.78
2022-07-25T01:10:08.708Z,3.60
2022-07-25T01:10:20.192Z,3.80
2022-07-25T01:10:32.762Z,3.40
2022-07-25T01:10:44.909Z,3.30
2022-07-25T01:10:56.350Z,3.20
2022-07-25T01:11:08.551Z,3.38
2022-07-25T01:11:20.430Z,3.45
2022-07-25T01:11:31.821Z,3.30
2022-07-25T01:11:43.376Z,3.38
2022-07-25T01:11:54.794Z,3.65
2022-07-25T01:12:06.437Z,3.78
2022-07-25T01:12:17.871Z,3.70
2022-07-25T01:12:29.294Z,3.67
2022-07-25T01:12:54.764Z,3.47
2022-07-25T01:13:06.257Z,3.35
2022-07-25T01:13:17.689Z,3.20
2022-07-25T01:13:32.591Z,3.17
2022-07-25T01:13:43.983Z,3.42
2022-07-25T01:13:55.461Z,3.67
2022-07-25T01:14:07.244Z,3.58
2022-07-25T01:14:18.944Z,3.60
2022-07-25T01:14:30.336Z,3.75
2022-07-25T01:14:41.734Z,4.15
2022-07-25T01:14:53.139Z,4.03
2022-07-25T01:15:04.833Z,3.70
2022-07-25T01:15:20.869Z,3.78
2022-07-25T01:15:32.454Z,3.65
2022-07-25T01:15:44.074Z,3.53
2022-07-25T01:15:55.554Z,3.75
2022-07-25T01:16:07.349Z,3.83
2022-07-25T01:16:18.969Z,4.07
2022-07-25T01:16:30.491Z,4.00
2022-07-25T01:16:41.936Z,3.70
2022-07-25T01:16:53.405Z,3.55
2022-07-25T01:17:04.852Z,3.53
2022-07-25T01:17:16.413Z,3.70
2022-07-25T01:17:27.840Z,3.50
2022-07-25T01:17:39.240Z,3.78
2022-07-25T01:17:51.062Z,3.80
2022-07-25T01:18:02.514Z,3.63
2022-07-25T01:18:13.909Z,3.33
2022-07-25T01:18:25.322Z,3.28
2022-07-25T01:18:36.723Z,3.30
2022-07-25T01:18:48.134Z,3.53
2022-07-25T01:18:59.580Z,3.42
2022-07-25T01:19:11.010Z,3.60
2022-07-25T01:19:22.554Z,3.60
2022-07-25T01:19:34.090Z,3.47
2022-07-25T01:19:45.506Z,3.25
2022-07-25T01:19:56.897Z,3.38
2022-07-25T01:20:19.711Z,3.42
2022-07-25T01:20:32.688Z,3.38
2022-07-25T01:20:44.338Z,3.40
2022-07-25T01:20:55.966Z,3.65
2022-07-25T01:21:07.464Z,4.00
2022-07-25T01:21:18.879Z,4.00
2022-07-25T01:21:30.285Z,3.92
2022-07-25T01:21:41.699Z,3.92
2022-07-25T01:21:53.152Z,3.80
2022-07-25T01:22:04.623Z,3.70
2022-07-25T01:22:16.002Z,3.60
2022-07-25T01:22:27.380Z,3.50
2022-07-25T01:22:38.797Z,3.45
2022-07-25T01:22:50.465Z,3.50
2022-07-25T01:23:02.168Z,3.47
2022-07-25T01:23:13.588Z,3.63
2022-07-25T01:23:24.975Z,3.78
2022-07-25T01:23:36.859Z,3.70
2022-07-25T01:23:48.257Z,3.53
2022-07-25T01:23:59.646Z,3.22
2022-07-25T01:24:11.207Z,3.10
2022-07-25T01:24:22.678Z,3.20
2022-07-25T01:24:35.443Z,3.30
2022-07-25T01:24:47.009Z,3.60
2022-07-25T01:24:58.387Z,3.60
2022-07-25T01:25:11.229Z,3.63
2022-07-25T01:25:23.594Z,3.55
2022-07-25T01:25:35.141Z,3.50
2022-07-25T01:25:46.556Z,3.70
2022-07-25T01:25:58.085Z,3.78
2022-07-25T01:26:09.595Z,3.85
2022-07-25T01:26:21.430Z,3.70
2022-07-25T01:26:32.824Z,3.75
2022-07-25T01:26:44.243Z,3.72
2022-07-25T01:26:55.661Z,3.80
2022-07-25T01:27:07.085Z,3.83
2022-07-25T01:27:18.495Z,3.50
2022-07-25T01:27:31.181Z,3.22
2022-07-25T01:27:43.658Z,3.33
2022-07-25T01:27:56.143Z,3.63
2022-07-25T01:28:07.766Z,3.40
2022-07-25T01:28:19.364Z,3.28
2022-07-25T01:28:30.801Z,3.30
2022-07-25T01:28:42.214Z,3.65
2022-07-25T01:28:53.631Z,3.85
2022-07-25T01:29:05.570Z,3.92
2022-07-25T01:29:16.985Z,3.70
2022-07-25T01:29:28.934Z,3.40
2022-07-25T01:29:40.360Z,3.55
2022-07-25T01:29:51.788Z,3.70
2022-07-25T01:30:06.400Z,3.97
2022-07-25T01:30:18.092Z,4.07
2022-07-25T01:30:29.541Z,3.97
2022-07-25T01:30:41.197Z,3.70
2022-07-25T01:30:52.738Z,3.72
2022-07-25T01:31:04.391Z,3.80
2022-07-25T01:31:15.963Z,3.65
2022-07-25T01:31:27.529Z,3.80
2022-07-25T01:31:39.026Z,3.80
2022-07-25T01:31:50.516Z,3.78
2022-07-25T01:32:01.974Z,3.70
2022-07-25T01:32:13.908Z,3.30
2022-07-25T01:32:25.448Z,3.42
2022-07-25T01:32:37.141Z,3.40
2022-07-25T01:32:48.657Z,3.47
2022-07-25T01:33:00.141Z,3.58
2022-07-25T01:33:20.392Z,3.72
2022-07-25T01:33:31.844Z,3.83
2022-07-25T01:33:43.235Z,3.85
2022-07-25T01:33:54.640Z,4.00
2022-07-25T01:34:06.430Z,3.80
2022-07-25T01:34:18.090Z,3.80
2022-07-25T01:34:29.616Z,3.67
2022-07-25T01:34:41.021Z,3.83
2022-07-25T01:34:52.476Z,3.78
2022-07-25T01:35:05.886Z,3.88
2022-07-25T01:35:17.497Z,3.70
2022-07-25T01:35:28.918Z,3.88
2022-07-25T01:35:43.393Z,3.72
2022-07-25T01:35:55.114Z,3.57
2022-07-25T01:36:06.657Z,3.15
2022-07-25T01:36:18.077Z,3.47
2022-07-25T01:36:29.529Z,3.58
2022-07-25T01:36:40.937Z,3.55
2022-07-25T01:36:52.352Z,3.45
2022-07-25T01:37:03.771Z,3.60
2022-07-25T01:37:15.154Z,3.63
2022-07-25T01:37:26.617Z,3.50
2022-07-25T01:37:38.055Z,3.95
2022-07-25T01:37:49.512Z,4.00
2022-07-25T01:38:00.890Z,3.78
2022-07-25T01:38:12.904Z,3.65
2022-07-25T01:38:24.488Z,3.58
2022-07-25T01:38:35.966Z,3.67
2022-07-25T01:38:47.399Z,3.60
2022-07-25T01:38:58.852Z,3.60
2022-07-25T01:39:10.256Z,3.42
2022-07-25T01:39:21.646Z,3.72
2022-07-25T01:39:33.044Z,3.90
2022-07-25T01:39:44.451Z,4.05
2022-07-25T01:39:55.900Z,3.55
2022-07-25T01:40:08.216Z,3.38
2022-07-25T01:40:19.640Z,3.60
2022-07-25T01:40:31.052Z,3.60
2022-07-25T01:40:43.391Z,3.60
2022-07-25T01:40:54.853Z,3.35
2022-07-25T01:41:06.621Z,3.17
2022-07-25T01:41:22.706Z,3.20
2022-07-25T01:41:34.290Z,3.40
2022-07-25T01:41:45.787Z,3.83
2022-07-25T01:41:57.196Z,3.83
2022-07-25T01:42:08.685Z,3.72
2022-07-25T01:42:20.145Z,3.28
2022-07-25T01:42:31.557Z,3.40
2022-07-25T01:42:44.046Z,3.67
2022-07-25T01:42:55.467Z,3.63
2022-07-25T01:43:07.296Z,3.67
2022-07-25T01:43:18.999Z,3.65
2022-07-25T01:43:30.400Z,3.58
2022-07-25T01:43:41.853Z,3.45
2022-07-25T01:43:53.281Z,3.72
2022-07-25T01:44:07.431Z,3.95
2022-07-25T01:44:19.088Z,3.80
2022-07-25T01:44:30.523Z,3.55
2022-07-25T01:44:41.944Z,3.63
2022-07-25T01:44:53.451Z,3.70
2022-07-25T01:45:05.445Z,3.45
2022-07-25T01:45:16.920Z,3.30
2022-07-25T01:45:28.375Z,3.55
2022-07-25T01:45:39.898Z,3.92
2022-07-25T01:45:51.415Z,3.80
2022-07-25T01:46:02.933Z,3.58
2022-07-25T01:46:14.457Z,3.67
2022-07-25T01:46:25.974Z,3.70
2022-07-25T01:46:37.481Z,3.63
2022-07-25T01:46:48.983Z,3.53
2022-07-25T01:47:00.499Z,3.63
2022-07-25T01:47:11.914Z,3.83
2022-07-25T01:47:23.311Z,3.88
2022-07-25T01:47:34.755Z,3.58
2022-07-25T01:47:46.194Z,3.53
2022-07-25T01:47:57.900Z,3.80
2022-07-25T01:48:09.548Z,3.60
2022-07-25T01:48:20.993Z,3.25
2022-07-25T01:48:32.605Z,3.35
2022-07-25T01:48:44.181Z,3.45
2022-07-25T01:48:55.712Z,3.40
2022-07-25T01:49:07.238Z,3.22
2022-07-25T01:49:18.754Z,3.65
2022-07-25T01:49:30.309Z,3.67
2022-07-25T01:49:41.732Z,3.63
2022-07-25T01:49:53.163Z,3.40
2022-07-25T01:50:05.453Z,3.53
2022-07-25T01:50:16.914Z,3.85
2022-07-25T01:50:28.434Z,3.92
2022-07-25T01:50:39.920Z,3.50
2022-07-25T01:50:51.333Z,3.67
2022-07-25T01:51:03.836Z,3.90
2022-07-25T01:51:15.476Z,4.03
2022-07-25T01:51:31.905Z,4.00
2022-07-25T01:51:43.318Z,3.70
2022-07-25T01:51:54.735Z,3.47
2022-07-25T01:52:06.369Z,3.53
2022-07-25T01:52:18.464Z,3.60
2022-07-25T01:52:29.876Z,3.47
2022-07-25T01:52:41.407Z,3.53
2022-07-25T01:52:52.906Z,3.50
2022-07-25T01:53:04.508Z,3.55
2022-07-25T01:53:15.973Z,3.28
2022-07-25T01:53:27.388Z,3.40
2022-07-25T01:53:38.825Z,3.65
2022-07-25T01:53:50.186Z,3.72
2022-07-25T01:54:01.578Z,3.67
2022-07-25T01:54:14.731Z,3.47
2022-07-25T01:54:26.567Z,3.50
2022-07-25T01:54:38.259Z,3.50
2022-07-25T01:54:49.685Z,3.58
2022-07-25T01:55:01.101Z,3.58
2022-07-25T01:55:12.872Z,3.72
2022-07-25T01:55:24.338Z,3.58
2022-07-25T01:55:36.786Z,3.35
2022-07-25T01:55:48.193Z,3.60
2022-07-25T01:55:59.606Z,3.72
2022-07-25T01:56:14.219Z,3.80
2022-07-25T01:56:25.812Z,3.72
2022-07-25T01:56:37.247Z,3.88
2022-07-25T01:56:50.044Z,3.72
2022-07-25T01:57:02.180Z,4.10
2022-07-25T01:57:13.589Z,3.90
2022-07-25T01:57:30.655Z,3.58
2022-07-25T01:57:50.038Z,3.70
2022-07-25T01:58:01.676Z,4.03
2022-07-25T01:58:17.528Z,3.80
2022-07-25T01:58:29.067Z,3.70
2022-07-25T01:58:40.481Z,3.80
2022-07-25T01:58:51.907Z,3.73
2022-07-25T01:59:03.352Z,3.72
2022-07-25T01:59:14.781Z,3.67
2022-07-25T01:59:26.203Z,3.67
2022-07-25T01:59:39.321Z,3.88
2022-07-25T01:59:50.798Z,4.00
2022-07-25T02:00:03.384Z,4.15
2022-07-25T02:00:15.873Z,4.07
2022-07-25T02:00:27.415Z,3.88
2022-07-25T02:00:39.202Z,3.50
2022-07-25T02:00:50.632Z,3.25
2022-07-25T02:01:02.084Z,3.10
2022-07-25T02:01:13.594Z,3.33
2022-07-25T02:01:25.654Z,3.58
2022-07-25T02:01:37.433Z,3.42
2022-07-25T02:01:48.938Z,3.42
2022-07-25T02:02:00.498Z,3.60
2022-07-25T02:02:11.963Z,3.80
2022-07-25T02:02:23.383Z,3.70
2022-07-25T02:02:34.792Z,3.85
2022-07-25T02:02:47.106Z,4.05
2022-07-25T02:02:58.507Z,4.00
2022-07-25T02:03:09.937Z,3.95
2022-07-25T02:03:21.336Z,3.80
2022-07-25T02:03:32.739Z,3.70
2022-07-25T02:03:44.139Z,3.97
2022-07-25T02:03:55.520Z,3.83
2022-07-25T02:04:07.130Z,3.63
2022-07-25T02:04:18.962Z,3.40
2022-07-25T02:04:30.464Z,3.60
2022-07-25T02:04:41.987Z,3.78
2022-07-25T02:04:54.531Z,3.95
2022-07-25T02:05:07.313Z,3.72
2022-07-25T02:05:18.765Z,3.58
2022-07-25T02:05:30.190Z,3.90
2022-07-25T02:05:41.755Z,3.90
2022-07-25T02:05:53.163Z,3.80
2022-07-25T02:06:07.095Z,3.60
2022-07-25T02:06:19.205Z,3.75
2022-07-25T02:06:30.594Z,3.45
2022-07-25T02:06:41.998Z,3.40
2022-07-25T02:06:53.413Z,3.85
2022-07-25T02:07:06.193Z,4.05
2022-07-25T02:07:17.721Z,3.97
2022-07-25T02:07:29.239Z,3.53
2022-07-25T02:07:40.771Z,3.60
2022-07-25T02:07:52.172Z,3.58
2022-07-25T02:08:03.903Z,3.65
2022-07-25T02:08:16.434Z,3.55
2022-07-25T02:08:29.788Z,3.47
2022-07-25T02:08:41.640Z,3.50
2022-07-25T02:08:53.031Z,3.70
2022-07-25T02:09:04.692Z,3.55
2022-07-25T02:09:16.240Z,3.63
2022-07-25T02:09:28.126Z,3.55
2022-07-25T02:09:39.619Z,3.70
2022-07-25T02:09:56.334Z,3.58
2022-07-25T02:10:09.768Z,3.70
2022-07-25T02:10:21.268Z,3.60
2022-07-25T02:10:58.833Z,3.70
2022-07-25T02:11:10.235Z,3.50
2022-07-25T02:11:21.688Z,3.55
2022-07-25T02:11:33.512Z,3.60
2022-07-25T02:11:44.904Z,3.60
2022-07-25T02:11:56.339Z,3.40
2022-07-25T02:12:08.280Z,3.55
2022-07-25T02:12:19.805Z,3.80
2022-07-25T02:12:31.308Z,3.65
2022-07-25T02:12:42.734Z,3.60
2022-07-25T02:12:54.139Z,3.78
2022-07-25T02:13:05.782Z,3.75
2022-07-25T02:13:17.299Z,3.83
2022-07-25T02:13:28.762Z,3.67
2022-07-25T02:13:40.186Z,3.78
2022-07-25T02:13:51.606Z,3.63
2022-07-25T02:14:03.675Z,3.45
2022-07-25T02:14:15.296Z,3.40
2022-07-25T02:14:26.707Z,3.70
2022-07-25T02:14:38.269Z,3.67
2022-07-25T02:14:49.710Z,3.47
2022-07-25T02:15:01.113Z,3.17
2022-07-25T02:15:12.506Z,3.65
2022-07-25T02:15:23.959Z,3.70
2022-07-25T02:15:35.967Z,3.67
2022-07-25T02:15:47.455Z,3.70
2022-07-25T02:15:58.925Z,3.95
2022-07-25T02:16:10.781Z,3.72
2022-07-25T02:16:28.767Z,3.65
2022-07-25T02:16:40.824Z,3.65
2022-07-25T02:16:52.364Z,3.60
2022-07-25T02:17:03.886Z,3.53
2022-07-25T02:17:15.618Z,3.70
2022-07-25T02:17:27.149Z,3.75
2022-07-25T02:17:38.601Z,3.80
2022-07-25T02:17:50.133Z,3.80
2022-07-25T02:18:01.553Z,3.78
2022-07-25T02:18:12.997Z,3.90
2022-07-25T02:18:24.456Z,3.80
2022-07-25T02:18:36.077Z,3.53
2022-07-25T02:18:47.710Z,3.45
2022-07-25T02:18:59.925Z,3.72
2022-07-25T02:19:11.335Z,3.72
2022-07-25T02:19:22.749Z,3.60
2022-07-25T02:19:34.322Z,3.60
2022-07-25T02:19:45.887Z,3.50
2022-07-25T02:19:57.333Z,3.60
2022-07-25T02:20:09.411Z,3.60
2022-07-25T02:20:20.875Z,3.75
2022-07-25T02:20:32.283Z,3.58
2022-07-25T02:20:43.876Z,3.55
2022-07-25T02:20:55.319Z,3.70
2022-07-25T02:21:06.776Z,3.80
2022-07-25T02:21:25.589Z,3.90
2022-07-25T02:21:37.045Z,3.88
2022-07-25T02:21:48.442Z,3.97
2022-07-25T02:22:00.493Z,4.03
2022-07-25T02:22:11.940Z,4.10
2022-07-25T02:22:23.369Z,3.85
2022-07-25T02:22:35.174Z,3.75
2022-07-25T02:22:46.608Z,4.00
2022-07-25T02:22:57.997Z,3.95
2022-07-25T02:23:09.911Z,3.90
2022-07-25T02:23:21.866Z,3.90
2022-07-25T02:23:33.590Z,3.95
2022-07-25T02:23:45.377Z,3.92
2022-07-25T02:23:56.821Z,3.80
2022-07-25T02:24:08.890Z,3.72
2022-07-25T02:24:20.582Z,3.72
2022-07-25T02:24:31.986Z,3.67
2022-07-25T02:24:43.415Z,3.53
2022-07-25T02:24:54.852Z,3.53
2022-07-25T02:25:06.798Z,3.50
2022-07-25T02:25:18.197Z,3.63
2022-07-25T02:25:30.563Z,3.63
2022-07-25T02:25:42.014Z,4.15
2022-07-25T02:25:53.437Z,4.10
2022-07-25T02:26:08.899Z,3.90
2022-07-25T02:26:20.315Z,3.75
2022-07-25T02:26:31.718Z,3.90
2022-07-25T02:26:43.099Z,3.75
2022-07-25T02:26:54.542Z,3.70
2022-07-25T02:27:06.028Z,3.53
2022-07-25T02:27:17.405Z,3.60
2022-07-25T02:27:28.802Z,3.63
2022-07-25T02:27:40.220Z,3.65
2022-07-25T02:27:51.626Z,3.75
2022-07-25T02:28:03.248Z,3.70
2022-07-25T02:28:14.652Z,3.70
2022-07-25T02:28:26.072Z,3.72
2022-07-25T02:28:37.640Z,3.53
2022-07-25T02:28:50.206Z,3.88
2022-07-25T02:29:01.572Z,3.90
2022-07-25T02:29:13.003Z,3.85
2022-07-25T02:29:24.430Z,3.65
2022-07-25T02:29:36.490Z,3.63
2022-07-25T02:29:47.917Z,3.55
2022-07-25T02:29:59.323Z,3.67
2022-07-25T02:30:11.309Z,3.83
2022-07-25T02:30:22.852Z,3.63
2022-07-25T02:30:34.289Z,3.55
2022-07-25T02:30:45.804Z,3.65
2022-07-25T02:30:57.339Z,3.70
2022-07-25T02:31:08.843Z,3.70
2022-07-25T02:31:20.545Z,3.72
2022-07-25T02:31:32.122Z,3.85
2022-07-25T02:31:43.529Z,3.80
2022-07-25T02:31:54.992Z,3.80
2022-07-25T02:32:06.589Z,3.85
2022-07-25T02:32:45.888Z,3.53
2022-07-25T02:32:57.631Z,3.42
2022-07-25T02:33:09.057Z,3.60
2022-07-25T02:33:20.481Z,3.83
2022-07-25T02:33:31.899Z,3.90
2022-07-25T02:33:44.228Z,3.90
2022-07-25T02:33:55.776Z,3.60
2022-07-25T02:34:07.680Z,3.45
2022-07-25T02:34:19.435Z,3.40
2022-07-25T02:34:30.873Z,3.67
2022-07-25T02:34:42.306Z,3.60
2022-07-25T02:34:53.722Z,3.63
2022-07-25T02:35:10.808Z,3.75
2022-07-25T02:35:24.757Z,3.92
2022-07-25T02:35:36.244Z,3.83
2022-07-25T02:35:47.887Z,3.80
2022-07-25T02:35:59.342Z,3.50
2022-07-25T02:36:11.089Z,3.50
2022-07-25T02:36:22.500Z,3.40
2022-07-25T02:36:33.973Z,3.25
2022-07-25T02:36:45.420Z,3.22
2022-07-25T02:36:56.859Z,3.30
2022-07-25T02:37:08.250Z,3.35
2022-07-25T02:37:19.694Z,3.63
2022-07-25T02:37:31.087Z,3.88
2022-07-25T02:37:42.547Z,3.88
2022-07-25T02:37:54.119Z,3.70
2022-07-25T02:38:05.562Z,3.83
2022-07-25T02:38:16.982Z,3.60
2022-07-25T02:38:28.487Z,3.65
2022-07-25T02:38:40.021Z,3.50
2022-07-25T02:38:51.786Z,3.55
2022-07-25T02:39:03.639Z,3.42
2022-07-25T02:39:15.289Z,3.55
2022-07-25T02:39:51.996Z,3.88
2022-07-25T02:40:23.586Z,3.70
2022-07-25T02:40:35.241Z,3.60
2022-07-25T02:40:48.317Z,3.83